sensor_id;sensor_type;location;lat;lon;timestamp;P1;P2;P0
45112;PMS5003;30873;53.908;27.576;2023-05-07T00:01:13;7.8;6.9;4.6
45112;PMS5003;30873;53.908;27.576;2023-05-07T00:07:05;8.4;7.4;4.8
45112;PMS5003;30873;53.908;27.576;2023-05-07T00:12:05;8.7;7.5;5
45112;PMS5003;30873;53.908;27.576;2023-05-07T00:16:25;8.7;7.9;4.8
45112;PMS5003;30873;53.908;27.576;2023-05-07T00:21:51;8.5;7.9;5.2
45112;PMS5003;30873;53.908;27.576;2023-05-07T00:26:49;10.1;7.5;5.2
45112;PMS5003;30873;53.908;27.576;2023-05-07T00:31:25;8.6;7.4;4.8
45112;PMS5003;30873;53.908;27.576;2023-05-07T00:36:27;7.2;6.6;4.1
45112;PMS5003;30873;53.908;27.576;2023-05-07T00:41:47;7.6;6.6;4.4
45112;PMS5003;30873;53.908;27.576;2023-05-07T00:47:02;8.7;7.4;5
45112;PMS5003;30873;53.908;27.576;2023-05-07T00:52:03;8.6;7.2;4.5
45112;PMS5003;30873;53.908;27.576;2023-05-07T00:56:25;7.4;6.2;4.2
45112;PMS5003;30873;53.908;27.576;2023-05-07T01:02:03;8;7.4;4.4
45112;PMS5003;30873;53.908;27.576;2023-05-07T01:06:51;7.9;7.2;4.4
45112;PMS5003;30873;53.908;27.576;2023-05-07T01:11:49;7.7;6.5;3.9
45112;PMS5003;30873;53.908;27.576;2023-05-07T01:16:13;7.9;6.6;4.3
45112;PMS5003;30873;53.908;27.576;2023-05-07T01:21:51;7.7;6.4;4.2
45112;PMS5003;30873;53.908;27.576;2023-05-07T01:26:13;8.6;7.3;4.3
45112;PMS5003;30873;53.908;27.576;2023-05-07T01:31:45;8.3;6.9;4.6
45112;PMS5003;30873;53.908;27.576;2023-05-07T01:37:03;8.7;6.7;3.9
45112;PMS5003;30873;53.908;27.576;2023-05-07T01:41:25;8.4;7.1;3.9
45112;PMS5003;30873;53.908;27.576;2023-05-07T01:47:03;6.9;5.9;3.9
45112;PMS5003;30873;53.908;27.576;2023-05-07T01:51:35;9.3;7.3;4.1
45112;PMS5003;30873;53.908;27.576;2023-05-07T01:56:13;8;6.8;4.2
45112;PMS5003;30873;53.908;27.576;2023-05-07T02:01:51;7.6;6.4;3.7
45112;PMS5003;30873;53.908;27.576;2023-05-07T02:06:35;7.3;6.4;3.4
45112;PMS5003;30873;53.908;27.576;2023-05-07T02:11:13;8.8;6.6;3.7
45112;PMS5003;30873;53.908;27.576;2023-05-07T02:16:51;8.3;7.6;4.8
45112;PMS5003;30873;53.908;27.576;2023-05-07T02:22:03;8.9;7.5;4.3
45112;PMS5003;30873;53.908;27.576;2023-05-07T02:26:35;8.3;6.9;4
45112;PMS5003;30873;53.908;27.576;2023-05-07T02:31:39;8.3;6.8;3.8
45112;PMS5003;30873;53.908;27.576;2023-05-07T02:37:03;7.7;7;4
45112;PMS5003;30873;53.908;27.576;2023-05-07T02:42:03;6.3;5.9;3.8
45112;PMS5003;30873;53.908;27.576;2023-05-07T02:46:39;7.9;6.7;4.1
45112;PMS5003;30873;53.908;27.576;2023-05-07T02:51:25;7.2;5.7;3.7
45112;PMS5003;30873;53.908;27.576;2023-05-07T02:56:51;8.1;6.2;3.3
45112;PMS5003;30873;53.908;27.576;2023-05-07T03:01:35;8.5;7;4.3
45112;PMS5003;30873;53.908;27.576;2023-05-07T03:06:23;7.3;6.5;4
45112;PMS5003;30873;53.908;27.576;2023-05-07T03:12:03;7.9;6.8;4.4
45112;PMS5003;30873;53.908;27.576;2023-05-07T03:17:03;7.7;6.6;3.7
45112;PMS5003;30873;53.908;27.576;2023-05-07T03:21:29;8.4;7.6;4.6
45112;PMS5003;30873;53.908;27.576;2023-05-07T03:26:51;8.7;7.8;4.3
45112;PMS5003;30873;53.908;27.576;2023-05-07T03:31:51;8.7;7.4;4.5
45112;PMS5003;30873;53.908;27.576;2023-05-07T03:36:39;8.1;7.3;4.8
45112;PMS5003;30873;53.908;27.576;2023-05-07T03:41:39;9.7;7.5;4.6
45112;PMS5003;30873;53.908;27.576;2023-05-07T03:46:15;9;7.5;4.5
45112;PMS5003;30873;53.908;27.576;2023-05-07T03:52:03;9;7.6;4.7
45112;PMS5003;30873;53.908;27.576;2023-05-07T03:57:03;15.3;14.5;11.7
45112;PMS5003;30873;53.908;27.576;2023-05-07T04:01:25;11.1;10.7;7.6
45112;PMS5003;30873;53.908;27.576;2023-05-07T04:07:03;11.6;10.5;7.8
45112;PMS5003;30873;53.908;27.576;2023-05-07T04:11:51;9;7.7;5.1
45112;PMS5003;30873;53.908;27.576;2023-05-07T04:16:25;10;8.1;5
45112;PMS5003;30873;53.908;27.576;2023-05-07T04:21:35;8.1;6.5;4.5
45112;PMS5003;30873;53.908;27.576;2023-05-07T04:26:51;8.2;7.1;4.8
45112;PMS5003;30873;53.908;27.576;2023-05-07T04:31:47;8;7.3;4.6
45112;PMS5003;30873;53.908;27.576;2023-05-07T04:36:47;9;7.7;4.7
45112;PMS5003;30873;53.908;27.576;2023-05-07T04:42:03;10.4;8;4.4
45112;PMS5003;30873;53.908;27.576;2023-05-07T04:46:39;8.6;7.4;4.7
45112;PMS5003;30873;53.908;27.576;2023-05-07T04:52:04;9;7.8;5.2
45112;PMS5003;30873;53.908;27.576;2023-05-07T04:56:35;7.7;6.7;4.7
45112;PMS5003;30873;53.908;27.576;2023-05-07T05:01:25;9.6;8.9;6.1
45112;PMS5003;30873;53.908;27.576;2023-05-07T05:06:51;9.1;7.9;5.2
45112;PMS5003;30873;53.908;27.576;2023-05-07T05:11:35;8.9;8;5.2
45112;PMS5003;30873;53.908;27.576;2023-05-07T05:16:13;7.6;6.8;4.3
45112;PMS5003;30873;53.908;27.576;2023-05-07T05:21:51;8.7;6.4;4.5
45112;PMS5003;30873;53.908;27.576;2023-05-07T05:27:03;8;6.6;3.8
45112;PMS5003;30873;53.908;27.576;2023-05-07T05:31:35;7.6;6.3;4.4
45112;PMS5003;30873;53.908;27.576;2023-05-07T05:36:27;7.4;6.2;4
45112;PMS5003;30873;53.908;27.576;2023-05-07T05:42:03;9.6;8.2;5.1
45112;PMS5003;30873;53.908;27.576;2023-05-07T05:47:03;7.7;7.1;4.4
45112;PMS5003;30873;53.908;27.576;2023-05-07T05:51:39;7.5;6.3;4.3
45112;PMS5003;30873;53.908;27.576;2023-05-07T05:56:23;8.9;7.7;4.7
45112;PMS5003;30873;53.908;27.576;2023-05-07T06:02:03;7.8;7.3;5.1
45112;PMS5003;30873;53.908;27.576;2023-05-07T06:06:53;10;8.4;5.2
45112;PMS5003;30873;53.908;27.576;2023-05-07T06:11:25;9;7.2;4.1
45112;PMS5003;30873;53.908;27.576;2023-05-07T06:16:13;7.9;6.3;3.3
45112;PMS5003;30873;53.908;27.576;2023-05-07T06:22:05;8.6;6.9;4
45112;PMS5003;30873;53.908;27.576;2023-05-07T06:26:25;8.2;7.2;4.8
45112;PMS5003;30873;53.908;27.576;2023-05-07T06:31:35;9.6;7.9;5.2
45112;PMS5003;30873;53.908;27.576;2023-05-07T06:37:07;9;6.9;5.1
45112;PMS5003;30873;53.908;27.576;2023-05-07T06:41:23;9.4;7.3;4.7
45112;PMS5003;30873;53.908;27.576;2023-05-07T06:46:37;8.2;7;3.7
45112;PMS5003;30873;53.908;27.576;2023-05-07T06:51:51;7.3;6.1;4.1
45112;PMS5003;30873;53.908;27.576;2023-05-07T06:56:39;4.8;4.7;3
45112;PMS5003;30873;53.908;27.576;2023-05-07T07:01:55;6.1;5;2.4
45112;PMS5003;30873;53.908;27.576;2023-05-07T07:06:25;7.1;5.6;3.3
45112;PMS5003;30873;53.908;27.576;2023-05-07T07:12:05;6.5;5.7;3.3
45112;PMS5003;30873;53.908;27.576;2023-05-07T07:16:55;7.1;5.8;3.6
45112;PMS5003;30873;53.908;27.576;2023-05-07T07:21:27;7;5.7;3.4
45112;PMS5003;30873;53.908;27.576;2023-05-07T07:26:35;6.1;5.6;2.6
45112;PMS5003;30873;53.908;27.576;2023-05-07T07:31:51;6.8;6.2;3.8
45112;PMS5003;30873;53.908;27.576;2023-05-07T07:36:13;7;5.6;3.4
45112;PMS5003;30873;53.908;27.576;2023-05-07T07:41:51;7.1;5.4;3.2
45112;PMS5003;30873;53.908;27.576;2023-05-07T07:47:07;7.1;5.5;2.8
45112;PMS5003;30873;53.908;27.576;2023-05-07T07:51:51;6.7;6.2;3.3
45112;PMS5003;30873;53.908;27.576;2023-05-07T07:57:05;6.7;5.7;3
45112;PMS5003;30873;53.908;27.576;2023-05-07T08:01:37;6.9;6.5;4.2
45112;PMS5003;30873;53.908;27.576;2023-05-07T08:06:13;5.8;5.4;3.1
45112;PMS5003;30873;53.908;27.576;2023-05-07T08:11:53;7.3;6.3;3.4
45112;PMS5003;30873;53.908;27.576;2023-05-07T08:16:25;6.6;5.8;3.6
45112;PMS5003;30873;53.908;27.576;2023-05-07T08:21:25;5.9;5.3;3
45112;PMS5003;30873;53.908;27.576;2023-05-07T08:26:47;7.3;6.4;3.5
45112;PMS5003;30873;53.908;27.576;2023-05-07T08:32:07;6.9;6.4;3.5
45112;PMS5003;30873;53.908;27.576;2023-05-07T08:36:25;7.6;7;4.6
45112;PMS5003;30873;53.908;27.576;2023-05-07T08:41:40;6.6;5.9;3.4
45112;PMS5003;30873;53.908;27.576;2023-05-07T08:47:07;7;6.1;3.3
45112;PMS5003;30873;53.908;27.576;2023-05-07T08:52:07;6.6;6.3;3.9
45112;PMS5003;30873;53.908;27.576;2023-05-07T08:56:40;8.1;7.3;4.7
45112;PMS5003;30873;53.908;27.576;2023-05-07T09:01:36;9;7.4;5
45112;PMS5003;30873;53.908;27.576;2023-05-07T09:07:07;8.8;7.8;5.3
45112;PMS5003;30873;53.908;27.576;2023-05-07T09:11:56;7.8;6.9;4.2
45112;PMS5003;30873;53.908;27.576;2023-05-07T09:16:14;7.6;7.2;4.4
45112;PMS5003;30873;53.908;27.576;2023-05-07T09:21:14;8.3;7.6;4.5
45112;PMS5003;30873;53.908;27.576;2023-05-07T09:27:07;8.1;6.3;3.9
45112;PMS5003;30873;53.908;27.576;2023-05-07T09:31:39;7.4;6.8;3.7
45112;PMS5003;30873;53.908;27.576;2023-05-07T09:36:35;7.4;6.6;4.1
45112;PMS5003;30873;53.908;27.576;2023-05-07T09:42:06;9;7.3;4.6
45112;PMS5003;30873;53.908;27.576;2023-05-07T09:46:41;9.8;8.2;5.6
45112;PMS5003;30873;53.908;27.576;2023-05-07T09:51:41;9.2;8.1;5
45112;PMS5003;30873;53.908;27.576;2023-05-07T09:56:52;9;7.9;4.9
45112;PMS5003;30873;53.908;27.576;2023-05-07T10:01:23;8.6;6.8;4.5
45112;PMS5003;30873;53.908;27.576;2023-05-07T10:06:29;8.2;7.8;4.9
45112;PMS5003;30873;53.908;27.576;2023-05-07T10:11:39;7.1;6.5;4.6
45112;PMS5003;30873;53.908;27.576;2023-05-07T10:17:06;7.9;7.4;5
45112;PMS5003;30873;53.908;27.576;2023-05-07T10:22:07;8.3;7.8;5.6
45112;PMS5003;30873;53.908;27.576;2023-05-07T10:27:08;8.1;7.5;5
45112;PMS5003;30873;53.908;27.576;2023-05-07T10:31:29;7.8;7;4.4
45112;PMS5003;30873;53.908;27.576;2023-05-07T10:37:08;7;6.7;4.5
45112;PMS5003;30873;53.908;27.576;2023-05-07T10:41:28;7.1;6.5;4.4
45112;PMS5003;30873;53.908;27.576;2023-05-07T10:46:40;7.6;6.9;4.6
45112;PMS5003;30873;53.908;27.576;2023-05-07T10:51:40;8.3;8.2;6
45112;PMS5003;30873;53.908;27.576;2023-05-07T10:56:40;10.6;9.7;7.1
45112;PMS5003;30873;53.908;27.576;2023-05-07T11:02:08;7.2;6.3;4.6
45112;PMS5003;30873;53.908;27.576;2023-05-07T11:06:14;8.6;7.8;5.8
45112;PMS5003;30873;53.908;27.576;2023-05-07T11:11:14;18.5;18.2;15.6
45112;PMS5003;30873;53.908;27.576;2023-05-07T11:17:08;12.7;11.5;9
45112;PMS5003;30873;53.908;27.576;2023-05-07T11:22:18;12.5;11.7;9.3
45112;PMS5003;30873;53.908;27.576;2023-05-07T11:26:26;7.6;6.9;5
45112;PMS5003;30873;53.908;27.576;2023-05-07T11:31:52;7.1;6.5;4.6
45112;PMS5003;30873;53.908;27.576;2023-05-07T11:36:56;6.5;6.1;4.3
45112;PMS5003;30873;53.908;27.576;2023-05-07T11:41:33;7;6.5;4.4
45112;PMS5003;30873;53.908;27.576;2023-05-07T11:46:14;7.1;6.5;4.6
45112;PMS5003;30873;53.908;27.576;2023-05-07T11:51:52;6.8;6.2;4.5
45112;PMS5003;30873;53.908;27.576;2023-05-07T11:57:13;6;6;4.3
45112;PMS5003;30873;53.908;27.576;2023-05-07T12:02:08;5.8;5.5;3.9
45112;PMS5003;30873;53.908;27.576;2023-05-07T12:06:53;6.8;6.4;4.5
45112;PMS5003;30873;53.908;27.576;2023-05-07T12:12:08;6.1;6.1;4
45112;PMS5003;30873;53.908;27.576;2023-05-07T12:16:56;7.2;6.6;5
45112;PMS5003;30873;53.908;27.576;2023-05-07T12:21:38;6.8;6.3;4.4
45112;PMS5003;30873;53.908;27.576;2023-05-07T12:26:37;5.9;5.5;3.7
45112;PMS5003;30873;53.908;27.576;2023-05-07T12:31:40;8.2;7.9;5.3
45112;PMS5003;30873;53.908;27.576;2023-05-07T12:36:14;6.9;6.3;4.7
45112;PMS5003;30873;53.908;27.576;2023-05-07T12:42:08;7.1;7;5
45112;PMS5003;30873;53.908;27.576;2023-05-07T12:47:08;7;6.8;5.1
45112;PMS5003;30873;53.908;27.576;2023-05-07T12:51:14;7.1;6.6;4.4
45112;PMS5003;30873;53.908;27.576;2023-05-07T12:57:06;6.5;6.3;4.2
45112;PMS5003;30873;53.908;27.576;2023-05-07T13:01:56;7.2;7.1;5.1
45112;PMS5003;30873;53.908;27.576;2023-05-07T13:06:14;6;5.6;4.1
45112;PMS5003;30873;53.908;27.576;2023-05-07T13:11:56;6;5.5;3.9
45112;PMS5003;30873;53.908;27.576;2023-05-07T13:16:40;6.1;5.6;4.1
45112;PMS5003;30873;53.908;27.576;2023-05-07T13:21:26;7;6.8;5.3
45112;PMS5003;30873;53.908;27.576;2023-05-07T13:26:52;6.8;6.5;5.1
45112;PMS5003;30873;53.908;27.576;2023-05-07T13:32:08;6.9;6.4;4.7
45112;PMS5003;30873;53.908;27.576;2023-05-07T13:36:36;5.9;5.7;4.2
45112;PMS5003;30873;53.908;27.576;2023-05-07T13:41:14;6.1;5.5;4
45112;PMS5003;30873;53.908;27.576;2023-05-07T13:47:08;6.3;5.6;4.2
45112;PMS5003;30873;53.908;27.576;2023-05-07T13:52:08;6.5;6.1;4.4
45112;PMS5003;30873;53.908;27.576;2023-05-07T13:56:40;6;6;3.8
45112;PMS5003;30873;53.908;27.576;2023-05-07T14:01:26;6.6;6.2;4.2
45112;PMS5003;30873;53.908;27.576;2023-05-07T14:07:08;6;6;4
45112;PMS5003;30873;53.908;27.576;2023-05-07T14:11:56;6.9;6.7;4.7
45112;PMS5003;30873;53.908;27.576;2023-05-07T14:16:36;5.6;5;3.3
45112;PMS5003;30873;53.908;27.576;2023-05-07T14:21:36;5.8;5.6;3.7
45112;PMS5003;30873;53.908;27.576;2023-05-07T14:27:08;8.1;7.1;4.8
45112;PMS5003;30873;53.908;27.576;2023-05-07T14:31:40;6.2;5.8;4
45112;PMS5003;30873;53.908;27.576;2023-05-07T14:36:26;6.3;5.9;4.3
45112;PMS5003;30873;53.908;27.576;2023-05-07T14:42:10;6.7;6.2;4.7
45112;PMS5003;30873;53.908;27.576;2023-05-07T14:46:14;5.9;5.7;3.9
45112;PMS5003;30873;53.908;27.576;2023-05-07T14:51:40;6.3;6.2;4.7
45112;PMS5003;30873;53.908;27.576;2023-05-07T14:56:52;6;5.7;3.9
45112;PMS5003;30873;53.908;27.576;2023-05-07T15:01:38;6.1;6.1;4.1
45112;PMS5003;30873;53.908;27.576;2023-05-07T15:07:06;6.9;6.4;4.7
45112;PMS5003;30873;53.908;27.576;2023-05-07T15:11:38;7.6;7.5;5.4
45112;PMS5003;30873;53.908;27.576;2023-05-07T15:17:06;7.4;6.9;4.7
45112;PMS5003;30873;53.908;27.576;2023-05-07T15:21:52;7;6.6;4.8
45112;PMS5003;30873;53.908;27.576;2023-05-07T15:26:14;7.4;7.3;4.7
45112;PMS5003;30873;53.908;27.576;2023-05-07T15:31:36;7;6.1;4.5
45112;PMS5003;30873;53.908;27.576;2023-05-07T15:36:50;7.3;6.8;5
45112;PMS5003;30873;53.908;27.576;2023-05-07T15:41:26;6.8;6.3;4.5
45112;PMS5003;30873;53.908;27.576;2023-05-07T15:46:52;6;5.5;3.7
45112;PMS5003;30873;53.908;27.576;2023-05-07T15:52:08;6.3;5.8;4.2
45112;PMS5003;30873;53.908;27.576;2023-05-07T15:56:40;7;6.4;4.4
45112;PMS5003;30873;53.908;27.576;2023-05-07T16:02:08;5.4;5.2;3.6
45112;PMS5003;30873;53.908;27.576;2023-05-07T16:06:26;7.7;6.7;4.6
45112;PMS5003;30873;53.908;27.576;2023-05-07T16:11:36;11.7;10.4;7.4
45112;PMS5003;30873;53.908;27.576;2023-05-07T16:16:31;13.6;12.7;10.7
45112;PMS5003;30873;53.908;27.576;2023-05-07T16:21:39;9.9;9.3;6.8
45112;PMS5003;30873;53.908;27.576;2023-05-07T16:26:14;6;5.8;3.9
45112;PMS5003;30873;53.908;27.576;2023-05-07T16:31:42;6.6;5.6;3.8
45112;PMS5003;30873;53.908;27.576;2023-05-07T16:37:06;6.6;6.1;4.1
45112;PMS5003;30873;53.908;27.576;2023-05-07T16:41:36;7;6.2;4
45112;PMS5003;30873;53.908;27.576;2023-05-07T16:46:28;7.3;6.4;4.6
45112;PMS5003;30873;53.908;27.576;2023-05-07T16:52:08;7.5;6.8;4.6
45112;PMS5003;30873;53.908;27.576;2023-05-07T16:57:08;7;6;4
45112;PMS5003;30873;53.908;27.576;2023-05-07T17:01:40;6.1;5.4;3.8
45112;PMS5003;30873;53.908;27.576;2023-05-07T17:06:14;9.5;8.6;5.4
45112;PMS5003;30873;53.908;27.576;2023-05-07T17:12:08;9.5;8.6;6
45112;PMS5003;30873;53.908;27.576;2023-05-07T17:16:56;12.2;11.4;7
45112;PMS5003;30873;53.908;27.576;2023-05-07T17:21:26;9.9;9.3;6.2
45112;PMS5003;30873;53.908;27.576;2023-05-07T17:26:34;9.8;8.2;5.3
45112;PMS5003;30873;53.908;27.576;2023-05-07T17:32:06;7.2;6.2;3.4
45112;PMS5003;30873;53.908;27.576;2023-05-07T17:36:26;7.6;6.1;3.4
45112;PMS5003;30873;53.908;27.576;2023-05-07T17:41:42;7;5.9;3.5
45112;PMS5003;30873;53.908;27.576;2023-05-07T17:47:08;7.6;6.2;3.4
45112;PMS5003;30873;53.908;27.576;2023-05-07T17:51:28;7.4;6.6;3.8
45112;PMS5003;30873;53.908;27.576;2023-05-07T17:56:40;8.9;7.9;4.5
45112;PMS5003;30873;53.908;27.576;2023-05-07T18:01:52;11;9.4;5.7
45112;PMS5003;30873;53.908;27.576;2023-05-07T18:06:26;9.3;7.2;5
45112;PMS5003;30873;53.908;27.576;2023-05-07T18:11:56;7.7;6.6;4.5
45112;PMS5003;30873;53.908;27.576;2023-05-07T18:16:14;10.5;8.5;5.5
45112;PMS5003;30873;53.908;27.576;2023-05-07T18:22:08;12.4;10.5;6.2
45112;PMS5003;30873;53.908;27.576;2023-05-07T18:26:52;10.8;8.9;5.9
45112;PMS5003;30873;53.908;27.576;2023-05-07T18:32:08;11.7;9.6;5.9
45112;PMS5003;30873;53.908;27.576;2023-05-07T18:36:14;9.8;7.6;5.8
45112;PMS5003;30873;53.908;27.576;2023-05-07T18:42:08;10.3;8.8;6.2
45112;PMS5003;30873;53.908;27.576;2023-05-07T18:46:26;12.7;10.7;7.1
45112;PMS5003;30873;53.908;27.576;2023-05-07T18:51:52;12.3;10.3;6.6
45112;PMS5003;30873;53.908;27.576;2023-05-07T18:56:38;13;10.7;7.1
45112;PMS5003;30873;53.908;27.576;2023-05-07T19:01:28;14;11.8;7.4
45112;PMS5003;30873;53.908;27.576;2023-05-07T19:06:52;12.2;11.1;7.6
45112;PMS5003;30873;53.908;27.576;2023-05-07T19:11:40;12.8;11.6;7.4
45112;PMS5003;30873;53.908;27.576;2023-05-07T19:16:14;15.9;14.8;10.6
45112;PMS5003;30873;53.908;27.576;2023-05-07T19:21:56;14.9;13;8.5
45112;PMS5003;30873;53.908;27.576;2023-05-07T19:26:14;14;12.3;8.2
45112;PMS5003;30873;53.908;27.576;2023-05-07T19:31:17;14.8;13.4;9.1
45112;PMS5003;30873;53.908;27.576;2023-05-07T19:36:52;15.4;12.9;7.9
45112;PMS5003;30873;53.908;27.576;2023-05-07T19:42:08;14.2;12.4;8.2
45112;PMS5003;30873;53.908;27.576;2023-05-07T19:46:52;14.5;13.4;8.3
45112;PMS5003;30873;53.908;27.576;2023-05-07T19:51:40;14.9;13.2;9
45112;PMS5003;30873;53.908;27.576;2023-05-07T19:57:08;16.2;13.6;9.3
45112;PMS5003;30873;53.908;27.576;2023-05-07T20:02:08;16.3;14.2;9.8
45112;PMS5003;30873;53.908;27.576;2023-05-07T20:06:28;16.1;14.6;9.6
45112;PMS5003;30873;53.908;27.576;2023-05-07T20:11:24;17.6;14;9
45112;PMS5003;30873;53.908;27.576;2023-05-07T20:17:08;19.5;16.4;10.6
45112;PMS5003;30873;53.908;27.576;2023-05-07T20:21:56;18;15.6;9.8
45112;PMS5003;30873;53.908;27.576;2023-05-07T20:26:24;20;17.4;10.2
45112;PMS5003;30873;53.908;27.576;2023-05-07T20:31:14;22.6;20.2;14.1
45112;PMS5003;30873;53.908;27.576;2023-05-07T20:36:54;20.4;17.8;11.8
45112;PMS5003;30873;53.908;27.576;2023-05-07T20:41:40;19.8;16.6;10.5
45112;PMS5003;30873;53.908;27.576;2023-05-07T20:46:36;19.6;17;10.9
45112;PMS5003;30873;53.908;27.576;2023-05-07T20:52:08;21.8;18.7;11.4
45112;PMS5003;30873;53.908;27.576;2023-05-07T20:56:14;21.9;18.6;12.3
45112;PMS5003;30873;53.908;27.576;2023-05-07T21:01:40;20.1;17.7;11.6
45112;PMS5003;30873;53.908;27.576;2023-05-07T21:06:52;17.3;15;10.1
45112;PMS5003;30873;53.908;27.576;2023-05-07T21:11:36;18.1;16.8;10.5
45112;PMS5003;30873;53.908;27.576;2023-05-07T21:16:56;18;15;10
45112;PMS5003;30873;53.908;27.576;2023-05-07T21:21:28;16.9;15.2;10
45112;PMS5003;30873;53.908;27.576;2023-05-07T21:26:52;17.1;15;10.3
45112;PMS5003;30873;53.908;27.576;2023-05-07T21:32:08;16.6;14.1;9.4
45112;PMS5003;30873;53.908;27.576;2023-05-07T21:37:08;16.7;14.9;9.4
45112;PMS5003;30873;53.908;27.576;2023-05-07T21:41:36;17;14.7;9.6
45112;PMS5003;30873;53.908;27.576;2023-05-07T21:47:08;16.3;13.9;9.7
45112;PMS5003;30873;53.908;27.576;2023-05-07T21:51:24;15.5;13.9;8.8
45112;PMS5003;30873;53.908;27.576;2023-05-07T21:56:52;15.7;14.2;8.6
45112;PMS5003;30873;53.908;27.576;2023-05-07T22:01:40;15.4;13.6;8.6
45112;PMS5003;30873;53.908;27.576;2023-05-07T22:06:24;14.4;12.9;8.6
45112;PMS5003;30873;53.908;27.576;2023-05-07T22:11:52;16.2;14.5;9.3
45112;PMS5003;30873;53.908;27.576;2023-05-07T22:16:24;14.6;12.1;8.8
45112;PMS5003;30873;53.908;27.576;2023-05-07T22:21:36;14.6;12.9;8.5
45112;PMS5003;30873;53.908;27.576;2023-05-07T22:27:06;14.9;12.6;8.6
45112;PMS5003;30873;53.908;27.576;2023-05-07T22:32:06;15.8;13;8
45112;PMS5003;30873;53.908;27.576;2023-05-07T22:36:14;13.8;11.4;7.9
45112;PMS5003;30873;53.908;27.576;2023-05-07T22:41:52;12.8;11.5;7.4
45112;PMS5003;30873;53.908;27.576;2023-05-07T22:46:56;14.6;11.9;8.3
45112;PMS5003;30873;53.908;27.576;2023-05-07T22:51:26;15.7;13.7;9.2
45112;PMS5003;30873;53.908;27.576;2023-05-07T22:56:14;15.5;13.5;9.3
45112;PMS5003;30873;53.908;27.576;2023-05-07T23:01:52;16.9;14.6;9.4
45112;PMS5003;30873;53.908;27.576;2023-05-07T23:07:08;15.5;13.4;9.2
45112;PMS5003;30873;53.908;27.576;2023-05-07T23:12:08;18.8;15.8;12.2
45112;PMS5003;30873;53.908;27.576;2023-05-07T23:16:40;19.5;18.5;13.5
45112;PMS5003;30873;53.908;27.576;2023-05-07T23:22:08;16;14.6;10.1
45112;PMS5003;30873;53.908;27.576;2023-05-07T23:26:56;17.3;15.1;9.7
45112;PMS5003;30873;53.908;27.576;2023-05-07T23:31:14;15;11.9;8.1
45112;PMS5003;30873;53.908;27.576;2023-05-07T23:36:14;12.7;11.5;7.6
45112;PMS5003;30873;53.908;27.576;2023-05-07T23:41:56;15.6;12.8;8.5
45112;PMS5003;30873;53.908;27.576;2023-05-07T23:46:30;14.6;12.8;8
45112;PMS5003;30873;53.908;27.576;2023-05-07T23:51:14;15.6;13.7;8.9
45112;PMS5003;30873;53.908;27.576;2023-05-07T23:57:08;15.6;13.8;8.9
